createdAt,value
2022-07-26T00:00:08.279Z,25.8
2022-07-26T00:07:46.907Z,25.7
2022-07-26T00:10:34.776Z,25.7
2022-07-26T00:13:24.394Z,25.6
2022-07-26T00:16:16.152Z,25.6
2022-07-26T00:19:05.529Z,25.5
2022-07-26T00:21:53.665Z,25.5
2022-07-26T00:25:19.069Z,25.4
2022-07-26T00:28:08.360Z,25.3
2022-07-26T00:30:57.885Z,25.3
2022-07-26T00:33:45.819Z,25.2
2022-07-26T00:36:33.836Z,25.2
2022-07-26T00:39:22.777Z,25.1
2022-07-26T00:42:10.654Z,25.1
2022-07-26T00:44:58.921Z,25
2022-07-26T00:47:47.127Z,25
2022-07-26T00:50:35.079Z,24.9
2022-07-26T00:53:22.948Z,24.9
2022-07-26T00:56:10.896Z,24.8
2022-07-26T00:58:59.620Z,24.7
2022-07-26T01:01:47.925Z,24.6
2022-07-26T01:04:36.285Z,24.6
2022-07-26T01:07:24.079Z,24.5
2022-07-26T01:10:11.649Z,24.5
2022-07-26T01:12:59.132Z,24.2
2022-07-26T01:15:46.983Z,24
2022-07-26T01:18:34.814Z,23.9
2022-07-26T01:21:22.597Z,23.8
2022-07-26T01:24:14.013Z,23.8
2022-07-26T01:27:01.749Z,23.7
2022-07-26T01:29:50.969Z,23.7
2022-07-26T01:32:38.706Z,23.6
2022-07-26T01:35:26.905Z,23.6
2022-07-26T01:38:16.820Z,23.6
2022-07-26T01:41:04.323Z,23.6
2022-07-26T01:43:51.993Z,23.6
2022-07-26T01:46:39.404Z,23.6
2022-07-26T01:49:26.884Z,23.6
2022-07-26T01:52:14.493Z,23.5
2022-07-26T01:55:03.166Z,23.5
2022-07-26T01:57:51.082Z,23.4
2022-07-26T02:00:38.961Z,23.3
2022-07-26T02:03:26.638Z,23.2
2022-07-26T02:06:14.147Z,23
2022-07-26T02:09:02.532Z,22.8
2022-07-26T02:11:52.724Z,22.7
2022-07-26T02:14:40.216Z,22.7
2022-07-26T02:17:27.932Z,22.6
2022-07-26T02:20:15.393Z,22.4
2022-07-26T02:23:03.204Z,22.2
2022-07-26T02:25:50.920Z,22.1
2022-07-26T02:28:39.620Z,22.1
2022-07-26T02:31:32.174Z,22
2022-07-26T02:34:20.236Z,22
2022-07-26T02:37:08.890Z,22.1
2022-07-26T02:39:56.485Z,21.9
2022-07-26T02:42:43.848Z,21.9
2022-07-26T02:45:31.494Z,21.9
2022-07-26T02:48:20.662Z,21.9
2022-07-26T02:51:10.613Z,22
2022-07-26T02:53:58.061Z,22
2022-07-26T02:56:45.559Z,22
2022-07-26T02:59:33.219Z,22
2022-07-26T03:02:21.067Z,22
2022-07-26T03:05:08.467Z,22
2022-07-26T03:07:56.290Z,22
2022-07-26T03:10:43.974Z,22
2022-07-26T03:13:31.518Z,21.9
2022-07-26T03:16:22.755Z,21.9
2022-07-26T03:19:12.465Z,21.9
2022-07-26T03:21:59.914Z,21.9
2022-07-26T03:24:48.573Z,21.9
2022-07-26T03:27:35.977Z,21.9
2022-07-26T03:30:24.724Z,21.8
2022-07-26T03:33:13.025Z,21.8
2022-07-26T03:36:00.601Z,21.7
2022-07-26T03:38:48.988Z,21.6
2022-07-26T03:41:36.435Z,21.4
2022-07-26T03:44:23.938Z,21.2
2022-07-26T03:47:11.419Z,21.1
2022-07-26T03:49:58.991Z,21.1
2022-07-26T03:52:46.919Z,21
2022-07-26T03:55:34.899Z,21
2022-07-26T03:58:54.443Z,20.9
2022-07-26T04:01:44.084Z,20.9
2022-07-26T04:04:32.630Z,20.9
2022-07-26T04:07:21.355Z,20.9
2022-07-26T04:10:09.258Z,20.9
2022-07-26T04:12:58.138Z,21
2022-07-26T04:15:45.923Z,21
2022-07-26T04:18:33.308Z,20.9
2022-07-26T04:21:21.414Z,20.9
2022-07-26T04:24:10.007Z,20.8
2022-07-26T04:26:58.234Z,20.8
2022-07-26T04:29:45.930Z,20.7
2022-07-26T04:32:33.424Z,20.6
2022-07-26T04:35:21.088Z,20.6
2022-07-26T04:38:08.983Z,20.5
2022-07-26T04:40:57.258Z,20.4
2022-07-26T04:43:44.909Z,20.4
2022-07-26T04:46:32.402Z,20.5
2022-07-26T04:49:20.099Z,20.4
2022-07-26T04:52:08.629Z,20.4
2022-07-26T04:54:56.322Z,20.2
2022-07-26T04:57:43.742Z,20.1
2022-07-26T05:00:32.274Z,20
2022-07-26T05:03:20.456Z,19.9
2022-07-26T05:06:09.722Z,19.9
2022-07-26T05:08:57.162Z,19.9
2022-07-26T05:11:44.577Z,20
2022-07-26T05:14:32.018Z,19.9
2022-07-26T05:17:19.882Z,19.9
2022-07-26T05:20:09.645Z,19.9
2022-07-26T05:22:59.664Z,19.9
2022-07-26T05:25:47.301Z,19.9
2022-07-26T05:28:35.664Z,19.9
2022-07-26T05:31:24.278Z,19.9
2022-07-26T05:34:12.189Z,19.9
2022-07-26T05:36:59.879Z,19.9
2022-07-26T05:39:47.364Z,20
2022-07-26T05:42:34.734Z,19.9
2022-07-26T05:45:22.276Z,19.9
2022-07-26T05:48:09.786Z,19.9
2022-07-26T05:50:57.287Z,19.9
2022-07-26T05:53:45.478Z,20
2022-07-26T05:56:32.894Z,20.1
2022-07-26T05:59:21.147Z,20.1
2022-07-26T06:02:09.439Z,20.2
2022-07-26T06:04:56.949Z,20.3
2022-07-26T06:07:44.425Z,20.4
2022-07-26T06:10:31.794Z,20.5
2022-07-26T06:13:19.480Z,20.5
2022-07-26T06:16:09.127Z,20.5
2022-07-26T06:18:56.621Z,20.5
2022-07-26T06:21:44.074Z,20.6
2022-07-26T06:24:31.734Z,20.6
2022-07-26T06:27:19.482Z,20.6
2022-07-26T06:30:08.563Z,20.6
2022-07-26T06:32:57.226Z,20.6
2022-07-26T06:35:44.733Z,20.5
2022-07-26T06:38:32.378Z,20.4
2022-07-26T06:41:19.967Z,20.3
2022-07-26T06:44:09.151Z,20.2
2022-07-26T06:46:56.964Z,20.2
2022-07-26T06:49:45.038Z,20.2
2022-07-26T06:52:32.429Z,20.2
2022-07-26T06:55:20.522Z,20.2
2022-07-26T06:58:09.264Z,20.3
2022-07-26T07:00:56.783Z,20.4
2022-07-26T07:03:44.376Z,20.5
2022-07-26T07:06:32.449Z,20.5
2022-07-26T07:09:20.449Z,20.5
2022-07-26T07:12:10.407Z,20.6
2022-07-26T07:14:59.911Z,20.5
2022-07-26T07:17:47.375Z,20.5
2022-07-26T07:20:36.332Z,20.6
2022-07-26T07:23:24.671Z,20.6
2022-07-26T07:26:12.447Z,20.7
2022-07-26T07:29:00.253Z,20.7
2022-07-26T07:31:52.477Z,20.7
2022-07-26T07:34:43.969Z,20.8
2022-07-26T07:37:52.850Z,20.9
2022-07-26T07:40:41.842Z,21
2022-07-26T07:43:29.374Z,21
2022-07-26T07:46:16.904Z,21.1
2022-07-26T07:49:04.589Z,21.1
2022-07-26T07:51:52.487Z,21.2
2022-07-26T07:54:39.934Z,21.3
2022-07-26T07:57:29.739Z,21.4
2022-07-26T08:00:17.253Z,21.4
2022-07-26T08:03:06.439Z,21.4
2022-07-26T08:05:54.283Z,21.5
2022-07-26T08:08:41.819Z,21.6
2022-07-26T08:11:30.623Z,21.8
2022-07-26T08:14:21.688Z,21.9
2022-07-26T08:17:09.965Z,22
2022-07-26T08:20:00.436Z,22
2022-07-26T08:22:49.706Z,22.1
2022-07-26T08:25:42.608Z,22.2
2022-07-26T08:28:47.409Z,22.4
2022-07-26T08:31:36.015Z,22.4
2022-07-26T08:34:24.005Z,22.4
2022-07-26T08:37:17.570Z,22.4
2022-07-26T08:40:06.368Z,22.4
2022-07-26T08:42:54.200Z,22.4
2022-07-26T08:45:42.916Z,22.4
2022-07-26T08:48:35.762Z,22.3
2022-07-26T08:51:26.157Z,22.3
2022-07-26T08:54:13.623Z,22.3
2022-07-26T08:57:01.581Z,22.4
2022-07-26T08:59:49.248Z,22.5
2022-07-26T09:03:00.029Z,22.7
2022-07-26T09:05:49.538Z,22.7
2022-07-26T09:08:38.622Z,22.6
2022-07-26T09:11:26.257Z,22.7
2022-07-26T09:14:15.880Z,22.7
2022-07-26T09:17:03.483Z,22.7
2022-07-26T09:19:50.949Z,22.7
2022-07-26T09:22:53.590Z,22.7
2022-07-26T09:25:45.984Z,22.7
2022-07-26T09:28:33.509Z,22.7
2022-07-26T09:31:21.398Z,22.9
2022-07-26T09:34:09.979Z,23.1
2022-07-26T09:36:57.983Z,23.2
2022-07-26T09:39:46.853Z,23.4
2022-07-26T09:42:43.787Z,23.5
2022-07-26T09:45:48.701Z,23.5
2022-07-26T09:49:09.925Z,23.6
2022-07-26T09:52:03.536Z,23.7
2022-07-26T09:55:00.462Z,23.8
2022-07-26T09:57:52.241Z,23.8
2022-07-26T10:00:40.158Z,23.8
2022-07-26T10:03:29.084Z,23.8
2022-07-26T10:06:17.719Z,23.9
2022-07-26T10:09:05.238Z,24
2022-07-26T10:11:54.353Z,24
2022-07-26T10:14:47.132Z,24.1
2022-07-26T10:17:36.534Z,24.2
2022-07-26T10:20:26.406Z,24.3
2022-07-26T10:23:45.947Z,24.5
2022-07-26T10:26:35.237Z,24.6
2022-07-26T10:29:25.733Z,24.7
2022-07-26T10:32:14.117Z,24.9
2022-07-26T10:35:04.784Z,25.2
2022-07-26T10:38:16.310Z,25.4
2022-07-26T10:41:10.752Z,25.3
2022-07-26T10:43:58.249Z,25.2
2022-07-26T10:47:05.877Z,25.2
2022-07-26T10:50:00.493Z,25
2022-07-26T10:52:50.330Z,24.8
2022-07-26T10:55:43.988Z,24.8
2022-07-26T10:58:34.772Z,25.1
2022-07-26T11:01:28.233Z,25.3
2022-07-26T11:04:20.077Z,25.3
2022-07-26T11:07:10.357Z,25.4
2022-07-26T11:09:58.023Z,25.4
2022-07-26T11:12:46.482Z,25.6
2022-07-26T11:15:34.123Z,25.8
2022-07-26T11:18:24.564Z,25.8
2022-07-26T11:21:15.483Z,25.8
2022-07-26T11:24:03.499Z,25.9
2022-07-26T11:26:51.767Z,25.8
2022-07-26T11:29:41.251Z,25.7
2022-07-26T11:32:29.193Z,25.6
2022-07-26T11:35:16.985Z,25.4
2022-07-26T11:38:11.894Z,25.1
2022-07-26T11:40:59.967Z,24.9
2022-07-26T11:43:47.670Z,24.7
2022-07-26T11:46:36.375Z,24.4
2022-07-26T11:50:00.818Z,24.3
2022-07-26T11:52:58.897Z,24.2
2022-07-26T11:55:47.612Z,24.4
2022-07-26T11:58:35.459Z,24.6
2022-07-26T12:01:25.731Z,25
2022-07-26T12:04:14.845Z,25.1
2022-07-26T12:07:06.173Z,25
2022-07-26T12:09:56.727Z,25
2022-07-26T12:12:46.311Z,25.2
2022-07-26T12:15:34.178Z,25.3
2022-07-26T12:18:38.338Z,25.4
2022-07-26T12:21:35.689Z,25.5
2022-07-26T12:24:26.347Z,25.7
2022-07-26T12:27:24.646Z,25.8
2022-07-26T12:30:15.155Z,25.8
2022-07-26T12:33:02.940Z,25.8
2022-07-26T12:35:50.476Z,25.8
2022-07-26T12:38:42.612Z,25.7
2022-07-26T12:41:30.114Z,25.6
2022-07-26T12:44:20.087Z,25.5
2022-07-26T12:47:08.875Z,25.7
2022-07-26T12:49:56.347Z,25.8
2022-07-26T12:52:43.952Z,26
2022-07-26T12:55:32.005Z,26.1
2022-07-26T12:58:21.286Z,26.1
2022-07-26T13:01:09.467Z,26
2022-07-26T13:03:57.544Z,26.2
2022-07-26T13:06:45.300Z,26.6
2022-07-26T13:09:32.801Z,27
2022-07-26T13:12:21.454Z,27.6
2022-07-26T13:15:09.852Z,28.1
2022-07-26T13:17:57.438Z,28.5
2022-07-26T13:20:45.204Z,28.6
2022-07-26T13:23:32.632Z,28.8
2022-07-26T13:26:22.893Z,28.8
2022-07-26T13:29:10.713Z,28.9
2022-07-26T13:31:58.568Z,29
2022-07-26T13:34:47.495Z,28.9
2022-07-26T13:37:35.167Z,28.8
2022-07-26T13:40:27.562Z,28.4
2022-07-26T13:43:18.367Z,28
2022-07-26T13:46:06.666Z,27.9
2022-07-26T13:49:00.949Z,27.6
2022-07-26T13:51:50.462Z,27.5
2022-07-26T13:54:45.914Z,27.6
2022-07-26T13:57:49.527Z,27.8
2022-07-26T14:00:44.043Z,27.9
2022-07-26T14:03:35.260Z,28
2022-07-26T14:06:22.971Z,27.9
2022-07-26T14:09:11.252Z,27.9
2022-07-26T14:12:00.622Z,27.9
2022-07-26T14:14:48.328Z,28
2022-07-26T14:17:35.859Z,28.4
2022-07-26T14:20:23.364Z,28.6
2022-07-26T14:23:11.307Z,28.5
2022-07-26T14:25:58.995Z,28.7
2022-07-26T14:28:46.685Z,29.2
2022-07-26T14:31:34.295Z,29.3
2022-07-26T14:34:22.650Z,29.1
2022-07-26T14:37:44.192Z,28.7
2022-07-26T14:40:33.090Z,28.2
2022-07-26T14:43:21.492Z,27.9
2022-07-26T14:46:11.459Z,27.7
2022-07-26T14:49:00.008Z,27.4
2022-07-26T14:51:48.130Z,27.2
2022-07-26T14:54:36.634Z,27
2022-07-26T14:57:24.473Z,26.8
2022-07-26T15:00:12.134Z,26.6
2022-07-26T15:03:02.896Z,26.4
2022-07-26T15:05:53.571Z,26.3
2022-07-26T15:08:41.120Z,26.1
2022-07-26T15:11:28.749Z,26.2
2022-07-26T15:14:16.468Z,26.2
2022-07-26T15:17:03.868Z,26.3
2022-07-26T15:19:51.432Z,26.3
2022-07-26T15:22:39.260Z,26.3
2022-07-26T15:25:26.715Z,26.2
2022-07-26T15:28:14.342Z,26
2022-07-26T15:31:02.202Z,25.7
2022-07-26T15:33:49.748Z,25.5
2022-07-26T15:36:37.300Z,25.4
2022-07-26T15:39:24.981Z,25.4
2022-07-26T15:42:14.722Z,25.7
2022-07-26T15:45:05.672Z,26.3
2022-07-26T15:48:09.388Z,27
2022-07-26T15:51:02.954Z,27.2
2022-07-26T15:53:50.886Z,27.1
2022-07-26T15:56:38.583Z,27
2022-07-26T15:59:26.250Z,26.7
2022-07-26T16:02:13.778Z,26.5
2022-07-26T16:05:01.430Z,26.4
2022-07-26T16:07:50.916Z,26.6
2022-07-26T16:10:38.989Z,27.2
2022-07-26T16:13:27.260Z,27.5
2022-07-26T16:16:15.351Z,27.5
2022-07-26T16:19:02.859Z,27.3
2022-07-26T16:21:50.335Z,27.1
2022-07-26T16:24:38.382Z,26.9
2022-07-26T16:27:26.133Z,26.7
2022-07-26T16:30:13.641Z,26.4
2022-07-26T16:33:01.437Z,26.2
2022-07-26T16:35:49.106Z,25.8
2022-07-26T16:38:36.741Z,25.6
2022-07-26T16:41:24.323Z,25.3
2022-07-26T16:44:13.785Z,25
2022-07-26T16:47:01.607Z,24.6
2022-07-26T16:49:49.974Z,24.4
2022-07-26T16:52:37.577Z,24.2
2022-07-26T16:55:25.407Z,23.9
2022-07-26T16:58:12.984Z,23.7
2022-07-26T17:01:00.595Z,23.5
2022-07-26T17:03:48.496Z,23.4
2022-07-26T17:06:35.997Z,23
2022-07-26T17:09:23.544Z,22.7
2022-07-26T17:12:10.998Z,22.5
2022-07-26T17:14:58.417Z,22.4
2022-07-26T17:17:48.829Z,22.2
2022-07-26T17:20:36.723Z,22
2022-07-26T17:23:24.718Z,21.8
2022-07-26T17:26:12.114Z,21.6
2022-07-26T17:29:00.008Z,21.5
2022-07-26T17:31:47.602Z,21.4
2022-07-26T17:34:35.463Z,21.4
2022-07-26T17:37:23.192Z,21.3
2022-07-26T17:40:10.766Z,21.3
2022-07-26T17:42:58.898Z,21.3
2022-07-26T17:45:46.495Z,21.3
2022-07-26T17:48:33.925Z,21.2
2022-07-26T17:51:21.617Z,21.2
2022-07-26T17:54:09.814Z,21.2
2022-07-26T17:56:57.559Z,21.2
2022-07-26T17:59:45.168Z,21.2
2022-07-26T18:02:32.673Z,21.2
2022-07-26T18:05:20.549Z,21.2
2022-07-26T18:08:09.500Z,21.2
2022-07-26T18:10:56.877Z,21.1
2022-07-26T18:13:45.450Z,21.1
2022-07-26T18:16:32.874Z,21
2022-07-26T18:19:21.654Z,21
2022-07-26T18:22:10.176Z,20.9
2022-07-26T18:24:57.643Z,20.7
2022-07-26T18:27:45.127Z,20.5
2022-07-26T18:30:32.597Z,20.3
2022-07-26T18:33:20.569Z,20.1
2022-07-26T18:36:09.224Z,20.2
2022-07-26T18:38:56.733Z,20.1
2022-07-26T18:41:45.486Z,20.1
2022-07-26T18:44:33.700Z,20
2022-07-26T18:47:23.051Z,20
2022-07-26T18:50:10.680Z,20
2022-07-26T18:52:59.361Z,20
2022-07-26T18:55:46.991Z,20
2022-07-26T18:58:35.180Z,20.1
2022-07-26T19:01:22.839Z,20.1
2022-07-26T19:04:10.481Z,20.1
2022-07-26T19:06:58.101Z,20
2022-07-26T19:09:45.650Z,19.9
2022-07-26T19:12:33.811Z,19.8
2022-07-26T19:15:22.480Z,19.8
2022-07-26T19:18:10.738Z,19.7
2022-07-26T19:21:00.829Z,19.7
2022-07-26T19:23:48.544Z,19.6
2022-07-26T19:26:36.380Z,19.6
2022-07-26T19:29:23.762Z,19.5
2022-07-26T19:32:11.363Z,19.5
2022-07-26T19:34:59.585Z,19.5
2022-07-26T19:37:47.467Z,19.5
2022-07-26T19:40:34.858Z,19.5
2022-07-26T19:43:22.646Z,19.5
2022-07-26T19:46:10.706Z,19.5
2022-07-26T19:48:58.509Z,19.5
2022-07-26T19:51:49.051Z,19.5
2022-07-26T19:54:36.531Z,19.5
2022-07-26T19:57:24.138Z,19.5
2022-07-26T20:00:12.052Z,19.4
2022-07-26T20:03:00.863Z,19.4
2022-07-26T20:05:48.477Z,19.4
2022-07-26T20:08:37.988Z,19.3
2022-07-26T20:11:25.959Z,19.3
2022-07-26T20:14:13.554Z,19.2
2022-07-26T20:17:01.221Z,19.2
2022-07-26T20:19:48.992Z,19.2
2022-07-26T20:22:36.894Z,19.1
2022-07-26T20:25:24.423Z,19.1
2022-07-26T20:28:11.900Z,19.2
2022-07-26T20:30:59.668Z,19.2
2022-07-26T20:33:47.367Z,19.1
2022-07-26T20:36:34.794Z,19.2
2022-07-26T20:39:22.521Z,19.2
2022-07-26T20:42:14.860Z,19.1
2022-07-26T20:45:11.480Z,19.1
2022-07-26T20:48:00.593Z,19.1
2022-07-26T20:50:48.157Z,19.1
2022-07-26T20:53:35.598Z,19.1
2022-07-26T20:56:23.033Z,19
2022-07-26T20:59:11.011Z,19
2022-07-26T21:01:59.007Z,18.9
2022-07-26T21:04:46.800Z,18.9
2022-07-26T21:07:58.297Z,18.9
2022-07-26T21:10:47.364Z,18.8
2022-07-26T21:13:35.585Z,18.8
2022-07-26T21:16:23.254Z,18.8
2022-07-26T21:19:11.245Z,18.8
2022-07-26T21:21:59.934Z,18.7
2022-07-26T21:24:47.483Z,18.7
2022-07-26T21:27:35.045Z,18.6
2022-07-26T21:30:23.398Z,18.6
2022-07-26T21:33:11.549Z,18.6
2022-07-26T21:35:59.789Z,18.5
2022-07-26T21:38:47.521Z,18.4
2022-07-26T21:41:34.984Z,18.3
2022-07-26T21:44:23.063Z,18.3
2022-07-26T21:47:11.473Z,18.3
2022-07-26T21:49:59.722Z,18.3
2022-07-26T21:52:47.250Z,18.3
2022-07-26T21:55:34.626Z,18.3
2022-07-26T21:58:26.381Z,18.3
2022-07-26T22:01:15.476Z,18.2
2022-07-26T22:04:03.174Z,18.2
2022-07-26T22:06:50.715Z,18.2
2022-07-26T22:09:38.213Z,18.2
2022-07-26T22:12:25.725Z,18.2
2022-07-26T22:15:14.685Z,18.2
2022-07-26T22:18:02.735Z,18.1
2022-07-26T22:20:50.801Z,18.1
2022-07-26T22:23:39.147Z,18.1
2022-07-26T22:26:26.723Z,18.1
2022-07-26T22:29:15.704Z,18.1
2022-07-26T22:32:03.295Z,18
2022-07-26T22:34:51.213Z,18
2022-07-26T22:37:39.363Z,17.9
2022-07-26T22:40:27.134Z,17.9
2022-07-26T22:43:14.667Z,17.9
2022-07-26T22:46:02.252Z,17.9
2022-07-26T22:48:49.847Z,17.9
2022-07-26T22:51:37.297Z,17.8
2022-07-26T22:54:24.770Z,17.8
2022-07-26T22:57:12.246Z,17.8
2022-07-26T22:59:59.780Z,17.8
2022-07-26T23:02:48.310Z,17.8
2022-07-26T23:05:45.980Z,17.8
2022-07-26T23:08:47.855Z,17.7
2022-07-26T23:11:36.562Z,17.7
2022-07-26T23:14:23.952Z,17.7
2022-07-26T23:17:11.958Z,17.7
2022-07-26T23:19:59.331Z,17.7
2022-07-26T23:22:47.034Z,17.7
2022-07-26T23:25:34.467Z,17.6
2022-07-26T23:28:35.866Z,17.6
2022-07-26T23:31:25.428Z,17.6
2022-07-26T23:34:12.964Z,17.6
2022-07-26T23:37:00.473Z,17.5
2022-07-26T23:39:48.142Z,17.5
2022-07-26T23:42:35.548Z,17.6
2022-07-26T23:45:23.069Z,17.6
2022-07-26T23:48:10.473Z,17.6
2022-07-26T23:50:57.967Z,17.6
2022-07-26T23:53:45.417Z,17.5
2022-07-26T23:56:32.985Z,17.6
2022-07-26T23:59:20.672Z,17.6
